Biscayne Park, Florida
Current Conditions -  °F | °C
As of 2:53 PM on Friday 19 Dec 2014 (Local Time) from KOPF Reporting Station
Few Clouds Few Clouds  
Wind Chill: 76°   Ceiling: Unl
Heat Index: 76°   Visibility: 10mi
Dew Point: 60°   Wind: 9mph
Humidity: 58%   Direction: 90°E
Pressure: 30.03"   Gusts: NA
Location:  25.9061°N, 80.1512°W
Report Text: KOPF 191953Z 09008KT 10SM FEW041 24/16 A3003 RMK AO2 SLP171 T02440156
Loading
Personal Weather Stations






























Interactive Weather Map New forecast layout! Learn more

10-Day Weather Forecast

Advertisements
Track Severe Weather on mobile